createdAt,value
2019-01-11T00:00:25.752Z,23.90
2019-01-11T00:02:53.901Z,23.23
2019-01-11T00:05:23.425Z,22.37
2019-01-11T00:07:51.874Z,22.27
2019-01-11T00:10:19.655Z,23.23
2019-01-11T00:12:47.364Z,23.12
2019-01-11T00:15:15.174Z,22.77
2019-01-11T00:17:43.161Z,21.85
2019-01-11T00:20:11.118Z,22.85
2019-01-11T00:22:39.089Z,21.93
2019-01-11T00:25:07.243Z,23.95
2019-01-11T00:27:35.452Z,22.95
2019-01-11T00:30:04.938Z,24.23
2019-01-11T00:32:33.110Z,23.35
2019-01-11T00:35:01.201Z,24.50
2019-01-11T00:37:29.916Z,24.37
2019-01-11T00:39:57.869Z,23.92
2019-01-11T00:42:26.005Z,25.55
2019-01-11T00:44:53.766Z,25.25
2019-01-11T00:47:21.832Z,24.33
2019-01-11T00:49:49.554Z,26.00
2019-01-11T00:52:17.346Z,23.58
2019-01-11T00:54:45.434Z,25.37
2019-01-11T00:57:13.485Z,22.87
2019-01-11T00:59:41.576Z,25.27
2019-01-11T01:02:09.540Z,23.45
2019-01-11T01:04:37.464Z,21.58
2019-01-11T01:07:05.439Z,24.73
2019-01-11T01:09:33.383Z,25.05
2019-01-11T01:12:01.328Z,22.67
2019-01-11T01:14:29.090Z,22.35
2019-01-11T01:16:57.472Z,22.77
2019-01-11T01:19:25.538Z,22.50
2019-01-11T01:21:53.613Z,24.02
2019-01-11T01:24:22.109Z,23.50
2019-01-11T01:26:50.137Z,24.25
2019-01-11T01:29:18.252Z,24.63
2019-01-11T01:31:46.532Z,24.95
2019-01-11T01:34:14.063Z,24.92
2019-01-11T01:36:42.064Z,26.30
2019-01-11T01:39:10.230Z,22.73
2019-01-11T01:41:38.109Z,25.25
2019-01-11T01:44:05.551Z,27.23
2019-01-11T01:46:33.399Z,24.02
2019-01-11T01:49:01.392Z,26.37
2019-01-11T01:51:29.392Z,25.37
2019-01-11T01:53:57.367Z,25.98
2019-01-11T01:56:25.328Z,24.20
2019-01-11T01:58:53.498Z,21.52
2019-01-11T02:01:21.860Z,24.05
2019-01-11T02:03:49.898Z,23.02
2019-01-11T02:06:17.980Z,22.67
2019-01-11T02:08:46.041Z,22.48
2019-01-11T02:11:41.533Z,23.65
2019-01-11T02:14:09.318Z,22.75
2019-01-11T02:16:37.370Z,22.42
2019-01-11T02:19:05.488Z,22.33
2019-01-11T02:21:33.525Z,21.50
2019-01-11T02:24:01.593Z,22.10
2019-01-11T02:26:29.570Z,22.23
2019-01-11T02:28:57.514Z,21.30
2019-01-11T02:31:25.792Z,19.67
2019-01-11T02:33:54.200Z,18.50
2019-01-11T02:36:22.598Z,22.70
2019-01-11T02:38:51.933Z,21.40
2019-01-11T02:41:21.131Z,19.55
2019-01-11T02:43:49.089Z,21.87
2019-01-11T02:46:17.768Z,21.12
2019-01-11T02:48:45.717Z,22.00
2019-01-11T02:51:13.412Z,22.23
2019-01-11T02:53:40.923Z,22.52
2019-01-11T02:56:09.109Z,22.90
2019-01-11T02:58:37.219Z,20.48
2019-01-11T03:01:05.538Z,23.62
2019-01-11T03:03:33.530Z,21.15
2019-01-11T03:06:01.581Z,21.50
2019-01-11T03:08:29.677Z,21.87
2019-01-11T03:10:57.572Z,22.90
2019-01-11T03:13:25.175Z,24.75
2019-01-11T03:15:53.288Z,22.23
2019-01-11T03:18:21.328Z,25.80
2019-01-11T03:20:49.884Z,26.75
2019-01-11T03:23:17.688Z,26.10
2019-01-11T03:25:45.553Z,26.27
2019-01-11T03:28:13.539Z,27.05
2019-01-11T03:30:41.423Z,26.77
2019-01-11T03:33:09.580Z,26.52
2019-01-11T03:35:37.633Z,26.15
2019-01-11T03:38:05.613Z,26.12
2019-01-11T03:40:33.625Z,26.48
2019-01-11T03:43:01.156Z,28.27
2019-01-11T03:45:30.050Z,26.20
2019-01-11T03:47:57.270Z,25.35
2019-01-11T03:50:24.985Z,27.83
2019-01-11T03:52:52.957Z,28.10
2019-01-11T03:55:20.998Z,27.83
2019-01-11T03:57:49.169Z,26.58
2019-01-11T04:00:26.111Z,28.42
2019-01-11T04:02:53.872Z,28.23
2019-01-11T04:05:22.114Z,30.27
2019-01-11T04:07:50.237Z,30.60
2019-01-11T04:10:19.193Z,28.25
2019-01-11T04:12:47.181Z,29.10
2019-01-11T04:15:15.341Z,27.65
2019-01-11T04:17:43.041Z,29.17
2019-01-11T04:20:12.723Z,29.40
2019-01-11T04:22:47.162Z,29.23
2019-01-11T04:25:20.783Z,28.42
2019-01-11T04:27:48.826Z,29.10
2019-01-11T04:30:18.355Z,29.45
2019-01-11T04:32:46.526Z,28.83
2019-01-11T04:35:14.499Z,28.17
2019-01-11T04:37:42.707Z,29.45
2019-01-11T04:40:11.243Z,29.67
2019-01-11T04:42:39.240Z,26.70
2019-01-11T04:45:07.883Z,28.00
2019-01-11T04:47:35.807Z,29.12
2019-01-11T04:50:09.347Z,29.02
2019-01-11T04:52:31.924Z,29.85
2019-01-11T04:54:59.949Z,29.67
2019-01-11T04:57:27.877Z,28.50
2019-01-11T04:59:56.112Z,31.37
2019-01-11T05:02:24.076Z,29.05
2019-01-11T05:04:51.771Z,29.80
2019-01-11T05:07:19.771Z,29.63
2019-01-11T05:09:47.874Z,27.20
2019-01-11T05:12:16.357Z,28.83
2019-01-11T05:14:44.328Z,26.27
2019-01-11T05:17:12.605Z,29.85
2019-01-11T05:19:40.574Z,29.65
2019-01-11T05:22:08.562Z,28.45
2019-01-11T05:24:36.735Z,28.58
2019-01-11T05:27:04.675Z,28.50
2019-01-11T05:29:32.648Z,28.42
2019-01-11T05:32:00.354Z,26.85
2019-01-11T05:34:28.100Z,24.92
2019-01-11T05:36:56.183Z,25.17
2019-01-11T05:39:24.261Z,25.30
2019-01-11T05:41:51.944Z,25.92
2019-01-11T05:44:19.823Z,25.40
2019-01-11T05:46:48.625Z,28.25
2019-01-11T05:49:19.018Z,27.52
2019-01-11T05:51:47.714Z,25.55
2019-01-11T05:54:16.474Z,24.52
2019-01-11T05:56:44.958Z,25.23
2019-01-11T05:59:12.762Z,27.20
2019-01-11T06:01:40.655Z,25.17
2019-01-11T06:04:26.170Z,25.58
2019-01-11T06:07:11.814Z,24.58
2019-01-11T06:09:39.913Z,23.05
2019-01-11T06:12:08.469Z,22.77
2019-01-11T06:14:36.148Z,23.12
2019-01-11T06:17:04.169Z,22.50
2019-01-11T06:19:32.175Z,22.65
2019-01-11T06:21:59.901Z,20.88
2019-01-11T06:24:27.914Z,19.08
2019-01-11T06:26:55.914Z,19.50
2019-01-11T06:29:24.435Z,20.45
2019-01-11T06:31:52.179Z,20.42
2019-01-11T06:34:20.780Z,21.15
2019-01-11T06:36:48.488Z,22.37
2019-01-11T06:39:16.745Z,21.00
2019-01-11T06:41:49.931Z,19.58
2019-01-11T06:44:17.885Z,19.02
2019-01-11T06:46:45.883Z,20.05
2019-01-11T06:49:13.892Z,19.52
2019-01-11T06:51:41.868Z,20.80
2019-01-11T06:54:09.756Z,22.50
2019-01-11T06:56:37.754Z,20.58
2019-01-11T06:59:10.425Z,22.42
2019-01-11T07:01:38.195Z,20.00
2019-01-11T07:04:06.206Z,18.98
2019-01-11T07:06:33.915Z,18.83
2019-01-11T07:09:01.619Z,18.98
2019-01-11T07:11:29.093Z,22.02
2019-01-11T07:13:57.052Z,19.83
2019-01-11T07:16:25.050Z,19.77
2019-01-11T07:18:53.027Z,18.85
2019-01-11T07:21:21.315Z,18.95
2019-01-11T07:23:49.067Z,18.98
2019-01-11T07:26:17.664Z,21.45
2019-01-11T07:28:45.678Z,19.48
2019-01-11T07:31:19.931Z,19.55
2019-01-11T07:33:47.693Z,19.10
2019-01-11T07:36:28.604Z,19.40
2019-01-11T07:38:56.366Z,19.45
2019-01-11T07:41:24.870Z,17.48
2019-01-11T07:43:53.617Z,17.75
2019-01-11T07:46:21.600Z,19.23
2019-01-11T07:48:49.579Z,17.67
2019-01-11T07:51:17.605Z,18.10
2019-01-11T07:53:45.606Z,17.70
2019-01-11T07:56:13.577Z,15.30
2019-01-11T07:58:41.749Z,17.27
2019-01-11T08:01:09.707Z,16.67
2019-01-11T08:03:37.687Z,15.15
2019-01-11T08:06:05.489Z,15.23
2019-01-11T08:08:33.207Z,15.38
2019-01-11T08:11:01.836Z,16.48
2019-01-11T08:13:29.795Z,13.65
2019-01-11T08:15:57.839Z,15.82
2019-01-11T08:18:25.831Z,14.27
2019-01-11T08:20:56.296Z,15.43
2019-01-11T08:23:21.824Z,14.23
2019-01-11T08:25:49.768Z,13.23
2019-01-11T08:28:18.389Z,14.73
2019-01-11T08:30:46.375Z,14.82
2019-01-11T08:33:18.517Z,15.02
2019-01-11T08:35:42.400Z,15.77
2019-01-11T08:38:10.185Z,14.63
2019-01-11T08:40:37.921Z,14.27
2019-01-11T08:43:05.933Z,14.55
2019-01-11T08:45:34.737Z,13.90
2019-01-11T08:48:02.707Z,12.95
2019-01-11T08:50:30.712Z,13.27
2019-01-11T08:52:58.742Z,12.70
2019-01-11T08:55:26.703Z,14.30
2019-01-11T08:57:54.746Z,12.82
2019-01-11T09:00:22.473Z,13.68
2019-01-11T09:02:50.469Z,13.90
2019-01-11T09:05:18.470Z,13.82
2019-01-11T09:07:46.469Z,12.77
2019-01-11T09:10:14.544Z,12.75
2019-01-11T09:12:43.164Z,13.20
2019-01-11T09:15:12.271Z,11.70
2019-01-11T09:18:17.630Z,12.37
2019-01-11T09:20:45.657Z,11.50
2019-01-11T09:23:13.779Z,12.40
2019-01-11T09:25:41.536Z,13.70
2019-01-11T09:28:09.211Z,12.10
2019-01-11T09:30:37.367Z,12.32
2019-01-11T09:33:05.449Z,12.27
2019-01-11T09:35:32.886Z,14.23
2019-01-11T09:38:00.683Z,13.40
2019-01-11T09:40:28.442Z,14.10
2019-01-11T09:42:56.606Z,13.20
2019-01-11T09:45:24.460Z,12.95
2019-01-11T09:47:52.904Z,14.43
2019-01-11T09:50:21.527Z,12.10
2019-01-11T09:52:50.141Z,12.90
2019-01-11T09:55:18.331Z,10.75
2019-01-11T09:57:46.309Z,10.25
2019-01-11T10:00:17.464Z,10.75
2019-01-11T10:02:50.086Z,11.27
2019-01-11T10:05:18.250Z,9.05
2019-01-11T10:07:46.258Z,9.05
2019-01-11T10:10:14.702Z,8.77
2019-01-11T10:12:43.271Z,9.43
2019-01-11T10:15:11.560Z,9.15
2019-01-11T10:17:39.425Z,8.70
2019-01-11T10:20:08.014Z,10.15
2019-01-11T10:22:36.284Z,9.13
2019-01-11T10:25:04.622Z,9.07
2019-01-11T10:27:32.835Z,9.40
2019-01-11T10:30:01.494Z,9.85
2019-01-11T10:32:29.531Z,9.90
2019-01-11T10:34:57.251Z,10.13
2019-01-11T10:37:25.328Z,9.32
2019-01-11T10:39:53.217Z,10.90
2019-01-11T10:42:21.168Z,11.25
2019-01-11T10:44:49.350Z,10.18
2019-01-11T10:47:17.938Z,11.75
2019-01-11T10:49:46.387Z,10.30
2019-01-11T10:52:14.106Z,10.10
2019-01-11T10:54:45.595Z,9.55
2019-01-11T10:57:13.339Z,8.48
2019-01-11T10:59:41.356Z,8.05
2019-01-11T11:02:09.353Z,8.38
2019-01-11T11:04:37.049Z,8.75
2019-01-11T11:07:05.654Z,9.02
2019-01-11T11:09:33.637Z,8.10
2019-01-11T11:12:01.603Z,7.40
2019-01-11T11:14:30.153Z,8.13
2019-01-11T11:16:58.309Z,8.15
2019-01-11T11:19:26.343Z,8.20
2019-01-11T11:21:54.887Z,8.10
2019-01-11T11:24:23.105Z,8.23
2019-01-11T11:26:51.357Z,8.48
2019-01-11T11:29:19.099Z,9.77
2019-01-11T11:31:46.886Z,8.00
2019-01-11T11:34:14.908Z,8.05
2019-01-11T11:36:42.915Z,8.32
2019-01-11T11:39:11.897Z,7.78
2019-01-11T11:41:39.352Z,7.70
2019-01-11T11:44:07.348Z,6.55
2019-01-11T11:46:35.901Z,6.90
2019-01-11T11:49:03.923Z,6.93
2019-01-11T11:51:32.589Z,6.55
2019-01-11T11:54:01.179Z,6.40
2019-01-11T11:56:29.203Z,6.37
2019-01-11T11:58:57.156Z,7.32
2019-01-11T12:01:25.137Z,6.57
2019-01-11T12:03:53.471Z,6.60
2019-01-11T12:06:22.467Z,6.30
2019-01-11T12:08:50.441Z,6.12
2019-01-11T12:11:19.576Z,5.12
2019-01-11T12:13:47.545Z,4.82
2019-01-11T12:16:16.786Z,4.43
2019-01-11T12:18:44.972Z,4.45
2019-01-11T12:21:14.157Z,4.53
2019-01-11T12:23:42.719Z,4.22
2019-01-11T12:26:10.758Z,4.87
2019-01-11T12:28:39.297Z,4.20
2019-01-11T12:31:08.605Z,3.92
2019-01-11T12:33:36.660Z,4.35
2019-01-11T12:36:05.302Z,4.00
2019-01-11T12:38:33.275Z,3.95
2019-01-11T12:41:01.802Z,4.32
2019-01-11T12:43:29.976Z,3.85
2019-01-11T12:45:57.681Z,3.33
2019-01-11T12:48:25.631Z,3.25
2019-01-11T12:50:53.345Z,2.90
2019-01-11T12:53:21.637Z,2.92
2019-01-11T12:55:49.336Z,3.00
2019-01-11T12:58:17.317Z,3.00
2019-01-11T13:00:45.942Z,3.90
2019-01-11T13:03:14.162Z,3.00
2019-01-11T13:05:41.636Z,3.17
2019-01-11T13:08:09.692Z,3.15
2019-01-11T13:10:37.753Z,2.70
2019-01-11T13:13:05.956Z,2.72
2019-01-11T13:15:34.882Z,2.80
2019-01-11T13:18:03.467Z,2.15
2019-01-11T13:20:31.203Z,2.35
2019-01-11T13:22:59.305Z,2.37
2019-01-11T13:25:32.137Z,2.92
2019-01-11T13:27:54.712Z,2.30
2019-01-11T13:30:23.344Z,2.45
2019-01-11T13:32:51.360Z,2.10
2019-01-11T13:35:19.989Z,1.90
2019-01-11T13:37:48.567Z,2.12
2019-01-11T13:40:18.032Z,2.12
2019-01-11T13:42:46.070Z,2.03
2019-01-11T13:45:14.025Z,2.50
2019-01-11T13:47:41.981Z,2.92
2019-01-11T13:50:13.200Z,2.12
2019-01-11T13:52:41.792Z,2.42
2019-01-11T13:55:09.859Z,2.10
2019-01-11T13:57:37.845Z,2.40
2019-01-11T14:00:07.350Z,2.62
2019-01-11T14:02:35.942Z,2.58
2019-01-11T14:05:03.919Z,2.33
2019-01-11T14:07:31.929Z,2.20
2019-01-11T14:09:59.945Z,2.58
2019-01-11T14:12:28.036Z,2.17
2019-01-11T14:14:55.841Z,2.67
2019-01-11T14:17:23.582Z,2.22
2019-01-11T14:19:52.200Z,2.42
2019-01-11T14:22:20.224Z,2.80
2019-01-11T14:24:48.315Z,2.10
2019-01-11T14:27:16.478Z,2.35
2019-01-11T14:29:44.512Z,2.95
2019-01-11T14:32:12.600Z,2.53
2019-01-11T14:34:40.642Z,2.85
2019-01-11T14:37:08.738Z,3.08
2019-01-11T14:39:36.547Z,2.67
2019-01-11T14:42:04.292Z,2.55
2019-01-11T14:44:31.993Z,2.70
2019-01-11T14:47:01.245Z,3.47
2019-01-11T14:49:29.190Z,3.00
2019-01-11T14:51:57.210Z,2.58
2019-01-11T14:54:25.227Z,3.40
2019-01-11T14:56:53.400Z,3.17
2019-01-11T14:59:21.981Z,2.97
2019-01-11T15:01:50.576Z,2.70
2019-01-11T15:04:19.133Z,2.25
2019-01-11T15:06:47.294Z,2.58
2019-01-11T15:09:14.994Z,2.67
2019-01-11T15:11:42.697Z,1.92
2019-01-11T15:14:11.347Z,2.50
2019-01-11T15:16:39.909Z,2.55
2019-01-11T15:19:13.890Z,2.92
2019-01-11T15:21:36.528Z,2.00
2019-01-11T15:24:04.672Z,2.78
2019-01-11T15:26:32.702Z,2.60
2019-01-11T15:29:00.463Z,2.72
2019-01-11T15:31:28.458Z,2.00
2019-01-11T15:33:56.449Z,2.75
2019-01-11T15:36:24.713Z,2.58
2019-01-11T15:38:53.299Z,2.20
2019-01-11T15:41:21.322Z,2.75
2019-01-11T15:43:49.303Z,2.30
2019-01-11T15:46:17.229Z,2.30
2019-01-11T15:48:49.081Z,2.00
2019-01-11T15:51:21.281Z,2.12
2019-01-11T15:53:48.961Z,2.45
2019-01-11T15:56:22.386Z,2.55
2019-01-11T15:58:50.491Z,2.00
2019-01-11T16:01:18.408Z,1.52
2019-01-11T16:03:46.488Z,2.80
2019-01-11T16:06:19.256Z,2.17
2019-01-11T16:09:06.396Z,2.35
2019-01-11T16:11:39.907Z,3.42
2019-01-11T16:14:17.812Z,2.30
2019-01-11T16:16:49.465Z,2.85
2019-01-11T16:19:17.522Z,2.80
2019-01-11T16:21:45.484Z,2.20
2019-01-11T16:24:13.514Z,3.40
2019-01-11T16:26:41.529Z,2.20
2019-01-11T16:29:09.589Z,2.20
2019-01-11T16:31:37.342Z,2.70
2019-01-11T16:34:05.446Z,2.12
2019-01-11T16:36:33.380Z,2.58
2019-01-11T16:39:01.405Z,2.90
2019-01-11T16:41:29.367Z,2.55
2019-01-11T16:43:57.406Z,3.10
2019-01-11T16:46:25.402Z,3.45
2019-01-11T16:48:54.000Z,3.10
2019-01-11T16:51:22.130Z,3.33
2019-01-11T16:53:50.165Z,3.37
2019-01-11T16:56:18.306Z,3.60
2019-01-11T16:58:46.346Z,3.42
2019-01-11T17:01:15.227Z,3.85
2019-01-11T17:03:42.705Z,3.42
2019-01-11T17:06:10.717Z,3.12
2019-01-11T17:08:39.029Z,3.17
2019-01-11T17:11:07.611Z,3.90
2019-01-11T17:13:40.537Z,2.90
2019-01-11T17:16:04.418Z,2.85
2019-01-11T17:18:32.594Z,2.75
2019-01-11T17:21:01.138Z,3.10
2019-01-11T17:23:28.823Z,2.85
2019-01-11T17:25:56.891Z,2.17
2019-01-11T17:28:24.642Z,2.28
2019-01-11T17:30:53.332Z,2.62
2019-01-11T17:33:21.408Z,2.37
2019-01-11T17:35:49.491Z,2.30
2019-01-11T17:38:17.206Z,3.10
2019-01-11T17:40:45.322Z,2.53
2019-01-11T17:43:13.277Z,2.75
2019-01-11T17:45:41.282Z,2.30
2019-01-11T17:48:08.988Z,2.42
2019-01-11T17:50:37.036Z,2.70
2019-01-11T17:53:05.264Z,2.40
2019-01-11T17:55:32.982Z,2.75
2019-01-11T17:58:00.965Z,2.25
2019-01-11T18:00:29.016Z,2.70
2019-01-11T18:02:57.226Z,2.47
2019-01-11T18:05:24.683Z,2.22
2019-01-11T18:07:52.674Z,2.05
2019-01-11T18:10:20.766Z,2.50
2019-01-11T18:12:48.819Z,2.97
2019-01-11T18:15:21.596Z,3.30
2019-01-11T18:17:50.196Z,2.55
2019-01-11T18:20:19.288Z,2.67
2019-01-11T18:22:47.128Z,2.53
2019-01-11T18:25:15.107Z,2.70
2019-01-11T18:27:43.128Z,2.87
2019-01-11T18:30:12.111Z,2.90
2019-01-11T18:32:40.358Z,2.78
2019-01-11T18:35:08.401Z,3.67
2019-01-11T18:37:36.435Z,3.70
2019-01-11T18:40:05.191Z,4.40
2019-01-11T18:42:33.149Z,4.62
2019-01-11T18:45:02.371Z,4.40
2019-01-11T18:47:30.087Z,5.00
2019-01-11T18:49:57.780Z,5.37
2019-01-11T18:52:25.783Z,5.10
2019-01-11T18:54:54.288Z,4.57
2019-01-11T18:57:22.136Z,3.62
2019-01-11T18:59:49.696Z,4.28
2019-01-11T19:02:17.662Z,4.85
2019-01-11T19:04:45.773Z,3.50
2019-01-11T19:07:13.574Z,3.58
2019-01-11T19:09:41.601Z,3.10
2019-01-11T19:12:09.607Z,2.47
2019-01-11T19:14:37.632Z,3.17
2019-01-11T19:17:06.224Z,2.55
2019-01-11T19:19:34.415Z,2.53
2019-01-11T19:22:02.165Z,2.75
2019-01-11T19:24:30.200Z,3.08
2019-01-11T19:26:57.934Z,2.47
2019-01-11T19:29:26.150Z,2.33
2019-01-11T19:31:54.155Z,2.35
2019-01-11T19:34:22.192Z,3.03
2019-01-11T19:36:50.364Z,3.10
2019-01-11T19:39:18.508Z,2.75
2019-01-11T19:41:47.031Z,2.70
2019-01-11T19:44:15.049Z,2.92
2019-01-11T19:46:43.101Z,3.50
2019-01-11T19:49:11.083Z,4.20
2019-01-11T19:51:38.814Z,3.33
2019-01-11T19:54:06.607Z,3.65
2019-01-11T19:56:34.362Z,3.80
2019-01-11T19:59:02.358Z,4.10
2019-01-11T20:01:30.701Z,4.90
2019-01-11T20:03:58.696Z,4.87
2019-01-11T20:06:27.087Z,4.78
2019-01-11T20:08:54.826Z,5.72
2019-01-11T20:11:22.777Z,6.82
2019-01-11T20:13:51.052Z,5.50
2019-01-11T20:16:19.239Z,5.15
2019-01-11T20:18:46.912Z,5.18
2019-01-11T20:21:14.658Z,5.10
2019-01-11T20:23:42.628Z,5.37
2019-01-11T20:26:10.647Z,4.30
2019-01-11T20:28:38.841Z,5.45
2019-01-11T20:31:07.177Z,4.32
2019-01-11T20:33:35.225Z,4.65
2019-01-11T20:36:03.303Z,4.90
2019-01-11T20:38:31.051Z,4.32
2019-01-11T20:40:59.022Z,5.05
2019-01-11T20:43:27.289Z,3.62
2019-01-11T20:45:55.826Z,3.83
2019-01-11T20:48:23.850Z,3.33
2019-01-11T20:50:52.390Z,3.47
2019-01-11T20:53:20.095Z,3.53
2019-01-11T20:55:48.180Z,4.05
2019-01-11T20:58:16.256Z,3.95
2019-01-11T21:00:44.240Z,4.47
2019-01-11T21:03:12.239Z,3.95
2019-01-11T21:05:40.689Z,3.75
2019-01-11T21:08:08.773Z,3.80
2019-01-11T21:10:37.327Z,3.70
2019-01-11T21:13:05.318Z,4.82
2019-01-11T21:15:33.438Z,5.00
2019-01-11T21:18:02.008Z,5.53
2019-01-11T21:20:30.217Z,5.25
2019-01-11T21:22:57.924Z,6.20
2019-01-11T21:25:27.510Z,6.28
2019-01-11T21:27:55.647Z,6.30
2019-01-11T21:30:24.781Z,5.35
2019-01-11T21:32:53.913Z,5.05
2019-01-11T21:35:22.590Z,4.65
2019-01-11T21:37:50.773Z,5.40
2019-01-11T21:40:19.407Z,5.62
2019-01-11T21:42:47.593Z,5.35
2019-01-11T21:45:15.581Z,5.15
2019-01-11T21:47:43.265Z,5.57
2019-01-11T21:50:13.506Z,4.97
2019-01-11T21:52:41.585Z,5.18
2019-01-11T21:55:09.872Z,5.32
2019-01-11T21:57:37.841Z,5.15
2019-01-11T22:00:06.997Z,5.07
2019-01-11T22:02:35.306Z,5.20
2019-01-11T22:05:03.567Z,4.90
2019-01-11T22:07:31.256Z,5.28
2019-01-11T22:09:59.741Z,4.50
2019-01-11T22:12:28.381Z,5.30
2019-01-11T22:14:56.070Z,5.00
2019-01-11T22:17:24.054Z,5.57
2019-01-11T22:19:52.343Z,5.05
2019-01-11T22:22:20.301Z,4.40
2019-01-11T22:24:48.345Z,4.35
2019-01-11T22:27:16.338Z,3.75
2019-01-11T22:29:44.273Z,3.58
2019-01-11T22:32:12.968Z,3.78
2019-01-11T22:34:41.002Z,2.75
2019-01-11T22:37:09.052Z,3.42
2019-01-11T22:39:36.980Z,2.40
2019-01-11T22:42:05.123Z,2.95
2019-01-11T22:44:33.678Z,2.00
2019-01-11T22:47:01.469Z,2.45
2019-01-11T22:49:29.790Z,2.33
2019-01-11T22:51:57.878Z,2.08
2019-01-11T22:54:25.946Z,2.20
2019-01-11T22:56:53.670Z,2.53
2019-01-11T22:59:22.700Z,2.37
2019-01-11T23:01:53.048Z,2.05
2019-01-11T23:04:21.473Z,2.42
2019-01-11T23:06:55.741Z,2.37
2019-01-11T23:09:25.144Z,2.45
2019-01-11T23:12:21.774Z,2.10
2019-01-11T23:14:49.721Z,2.50
2019-01-11T23:17:39.828Z,2.20
2019-01-11T23:20:10.263Z,2.87
2019-01-11T23:22:38.021Z,2.53
2019-01-11T23:25:06.045Z,2.45
2019-01-11T23:27:34.685Z,2.08
2019-01-11T23:30:02.394Z,2.50
2019-01-11T23:32:30.380Z,1.90
2019-01-11T23:34:58.482Z,2.10
2019-01-11T23:37:26.181Z,1.95
2019-01-11T23:39:54.835Z,1.92
2019-01-11T23:42:22.697Z,2.05
2019-01-11T23:44:50.733Z,2.00
2019-01-11T23:47:18.448Z,1.73
2019-01-11T23:49:46.293Z,1.87
2019-01-11T23:52:14.357Z,2.10
2019-01-11T23:54:42.519Z,1.60
2019-01-11T23:57:10.615Z,1.60
2019-01-11T23:59:38.667Z,1.40
